sensor_id;sensor_type;location;lat;lon;timestamp;temperature;humidity
3850;DHT22;1940;51.052;13.678;2023-06-04T00:01:04;11.50;68.90
3850;DHT22;1940;51.052;13.678;2023-06-04T00:03:30;11.40;69.20
3850;DHT22;1940;51.052;13.678;2023-06-04T00:05:56;11.40;69.30
3850;DHT22;1940;51.052;13.678;2023-06-04T00:08:22;11.40;69.30
3850;DHT22;1940;51.052;13.678;2023-06-04T00:10:48;11.30;69.60
3850;DHT22;1940;51.052;13.678;2023-06-04T00:13:13;11.10;70.10
3850;DHT22;1940;51.052;13.678;2023-06-04T00:15:39;11.10;70.10
3850;DHT22;1940;51.052;13.678;2023-06-04T00:18:05;11.10;70.40
3850;DHT22;1940;51.052;13.678;2023-06-04T00:20:30;11.00;70.20
3850;DHT22;1940;51.052;13.678;2023-06-04T00:22:56;11.00;69.80
3850;DHT22;1940;51.052;13.678;2023-06-04T00:25:21;11.00;69.60
3850;DHT22;1940;51.052;13.678;2023-06-04T00:27:47;11.00;69.40
3850;DHT22;1940;51.052;13.678;2023-06-04T00:30:13;11.10;69.30
3850;DHT22;1940;51.052;13.678;2023-06-04T00:32:38;11.10;69.40
3850;DHT22;1940;51.052;13.678;2023-06-04T00:35:05;11.10;69.40
3850;DHT22;1940;51.052;13.678;2023-06-04T00:37:31;11.00;69.70
3850;DHT22;1940;51.052;13.678;2023-06-04T00:39:57;11.00;70.30
3850;DHT22;1940;51.052;13.678;2023-06-04T00:42:22;11.00;70.40
3850;DHT22;1940;51.052;13.678;2023-06-04T00:44:48;10.90;70.60
3850;DHT22;1940;51.052;13.678;2023-06-04T00:47:15;10.80;70.90
3850;DHT22;1940;51.052;13.678;2023-06-04T00:49:41;10.70;71.30
3850;DHT22;1940;51.052;13.678;2023-06-04T00:52:08;10.70;71.30
3850;DHT22;1940;51.052;13.678;2023-06-04T00:54:35;10.60;71.30
3850;DHT22;1940;51.052;13.678;2023-06-04T00:57:01;10.60;71.60
3850;DHT22;1940;51.052;13.678;2023-06-04T00:59:29;10.60;71.40
3850;DHT22;1940;51.052;13.678;2023-06-04T01:02:02;10.50;71.70
3850;DHT22;1940;51.052;13.678;2023-06-04T01:04:41;10.50;71.90
3850;DHT22;1940;51.052;13.678;2023-06-04T01:07:09;10.50;72.20
3850;DHT22;1940;51.052;13.678;2023-06-04T01:09:36;10.50;71.90
3850;DHT22;1940;51.052;13.678;2023-06-04T01:12:04;10.50;72.30
3850;DHT22;1940;51.052;13.678;2023-06-04T01:14:30;10.60;72.00
3850;DHT22;1940;51.052;13.678;2023-06-04T01:20:14;10.30;72.40
3850;DHT22;1940;51.052;13.678;2023-06-04T01:25:38;10.30;72.60
3850;DHT22;1940;51.052;13.678;2023-06-04T01:28:05;10.30;72.90
3850;DHT22;1940;51.052;13.678;2023-06-04T01:30:36;10.20;73.00
3850;DHT22;1940;51.052;13.678;2023-06-04T01:33:17;10.20;73.10
3850;DHT22;1940;51.052;13.678;2023-06-04T01:35:43;10.10;73.30
3850;DHT22;1940;51.052;13.678;2023-06-04T01:38:09;10.10;73.30
3850;DHT22;1940;51.052;13.678;2023-06-04T01:40:35;10.10;73.40
3850;DHT22;1940;51.052;13.678;2023-06-04T01:43:01;10.00;73.80
3850;DHT22;1940;51.052;13.678;2023-06-04T01:45:27;10.00;74.00
3850;DHT22;1940;51.052;13.678;2023-06-04T01:47:54;9.90;74.20
3850;DHT22;1940;51.052;13.678;2023-06-04T01:50:20;9.90;74.70
3850;DHT22;1940;51.052;13.678;2023-06-04T01:52:46;9.90;74.50
3850;DHT22;1940;51.052;13.678;2023-06-04T01:55:13;9.90;74.40
3850;DHT22;1940;51.052;13.678;2023-06-04T01:57:40;9.80;74.60
3850;DHT22;1940;51.052;13.678;2023-06-04T02:00:07;9.80;74.80
3850;DHT22;1940;51.052;13.678;2023-06-04T02:02:35;9.80;74.80
3850;DHT22;1940;51.052;13.678;2023-06-04T02:05:01;9.70;75.10
3850;DHT22;1940;51.052;13.678;2023-06-04T02:07:27;9.70;75.00
3850;DHT22;1940;51.052;13.678;2023-06-04T02:09:52;9.50;75.20
3850;DHT22;1940;51.052;13.678;2023-06-04T02:12:18;9.50;75.50
3850;DHT22;1940;51.052;13.678;2023-06-04T02:14:44;9.40;75.60
3850;DHT22;1940;51.052;13.678;2023-06-04T02:17:12;9.30;75.90
3850;DHT22;1940;51.052;13.678;2023-06-04T02:19:44;9.20;76.10
3850;DHT22;1940;51.052;13.678;2023-06-04T02:22:11;9.20;76.10
3850;DHT22;1940;51.052;13.678;2023-06-04T02:24:38;9.20;76.00
3850;DHT22;1940;51.052;13.678;2023-06-04T02:27:05;9.10;76.40
3850;DHT22;1940;51.052;13.678;2023-06-04T02:29:30;9.10;76.50
3850;DHT22;1940;51.052;13.678;2023-06-04T02:31:56;9.10;76.70
3850;DHT22;1940;51.052;13.678;2023-06-04T02:34:21;9.10;76.50
3850;DHT22;1940;51.052;13.678;2023-06-04T02:36:48;8.90;76.80
3850;DHT22;1940;51.052;13.678;2023-06-04T02:39:16;8.90;76.90
3850;DHT22;1940;51.052;13.678;2023-06-04T02:41:42;8.90;77.00
3850;DHT22;1940;51.052;13.678;2023-06-04T02:44:07;8.90;77.00
3850;DHT22;1940;51.052;13.678;2023-06-04T02:46:32;8.80;77.40
3850;DHT22;1940;51.052;13.678;2023-06-04T02:48:58;8.80;77.40
3850;DHT22;1940;51.052;13.678;2023-06-04T02:51:24;8.80;77.40
3850;DHT22;1940;51.052;13.678;2023-06-04T02:53:49;8.70;77.50
3850;DHT22;1940;51.052;13.678;2023-06-04T02:56:15;8.70;77.80
3850;DHT22;1940;51.052;13.678;2023-06-04T02:58:51;8.60;78.10
3850;DHT22;1940;51.052;13.678;2023-06-04T03:01:19;8.60;78.00
3850;DHT22;1940;51.052;13.678;2023-06-04T03:03:45;8.60;78.00
3850;DHT22;1940;51.052;13.678;2023-06-04T03:06:11;8.70;78.00
3850;DHT22;1940;51.052;13.678;2023-06-04T03:08:39;8.80;77.50
3850;DHT22;1940;51.052;13.678;2023-06-04T03:11:05;9.00;77.00
3850;DHT22;1940;51.052;13.678;2023-06-04T03:13:31;9.20;76.30
3850;DHT22;1940;51.052;13.678;2023-06-04T03:15:56;9.20;76.00
3850;DHT22;1940;51.052;13.678;2023-06-04T03:18:25;9.50;75.60
3850;DHT22;1940;51.052;13.678;2023-06-04T03:20:51;9.70;74.90
3850;DHT22;1940;51.052;13.678;2023-06-04T03:23:18;9.90;74.60
3850;DHT22;1940;51.052;13.678;2023-06-04T03:25:43;10.20;73.90
3850;DHT22;1940;51.052;13.678;2023-06-04T03:28:09;10.50;73.20
3850;DHT22;1940;51.052;13.678;2023-06-04T03:30:35;10.90;71.80
3850;DHT22;1940;51.052;13.678;2023-06-04T03:33:00;11.30;70.70
3850;DHT22;1940;51.052;13.678;2023-06-04T03:35:26;11.60;69.80
3850;DHT22;1940;51.052;13.678;2023-06-04T03:37:51;11.80;69.00
3850;DHT22;1940;51.052;13.678;2023-06-04T03:40:17;12.10;68.30
3850;DHT22;1940;51.052;13.678;2023-06-04T03:42:42;12.40;67.50
3850;DHT22;1940;51.052;13.678;2023-06-04T03:45:08;12.60;67.00
3850;DHT22;1940;51.052;13.678;2023-06-04T03:47:34;13.00;66.10
3850;DHT22;1940;51.052;13.678;2023-06-04T03:49:59;13.40;65.40
3850;DHT22;1940;51.052;13.678;2023-06-04T03:52:24;13.60;64.80
3850;DHT22;1940;51.052;13.678;2023-06-04T03:54:50;13.70;64.40
3850;DHT22;1940;51.052;13.678;2023-06-04T03:57:15;14.10;63.50
3850;DHT22;1940;51.052;13.678;2023-06-04T03:59:41;14.40;62.70
3850;DHT22;1940;51.052;13.678;2023-06-04T04:02:06;14.70;62.40
3850;DHT22;1940;51.052;13.678;2023-06-04T04:04:32;15.20;61.20
3850;DHT22;1940;51.052;13.678;2023-06-04T04:07:00;15.20;60.40
3850;DHT22;1940;51.052;13.678;2023-06-04T04:09:26;15.20;61.00
3850;DHT22;1940;51.052;13.678;2023-06-04T04:11:51;15.50;60.20
3850;DHT22;1940;51.052;13.678;2023-06-04T04:14:17;16.10;59.10
3850;DHT22;1940;51.052;13.678;2023-06-04T04:16:42;16.60;58.30
3850;DHT22;1940;51.052;13.678;2023-06-04T04:19:08;17.40;56.90
3850;DHT22;1940;51.052;13.678;2023-06-04T04:21:35;18.20;55.10
3850;DHT22;1940;51.052;13.678;2023-06-04T04:24:02;18.50;53.70
3850;DHT22;1940;51.052;13.678;2023-06-04T04:26:28;18.70;53.10
3850;DHT22;1940;51.052;13.678;2023-06-04T04:28:54;18.50;53.50
3850;DHT22;1940;51.052;13.678;2023-06-04T04:31:24;18.80;53.30
3850;DHT22;1940;51.052;13.678;2023-06-04T04:33:50;18.80;53.20
3850;DHT22;1940;51.052;13.678;2023-06-04T04:36:16;18.60;53.00
3850;DHT22;1940;51.052;13.678;2023-06-04T04:38:44;18.10;54.10
3850;DHT22;1940;51.052;13.678;2023-06-04T04:41:10;18.10;54.30
3850;DHT22;1940;51.052;13.678;2023-06-04T04:43:37;17.80;54.50
3850;DHT22;1940;51.052;13.678;2023-06-04T04:46:05;17.70;55.00
3850;DHT22;1940;51.052;13.678;2023-06-04T04:48:31;17.90;54.20
3850;DHT22;1940;51.052;13.678;2023-06-04T04:50:56;17.70;54.60
3850;DHT22;1940;51.052;13.678;2023-06-04T04:53:22;18.70;53.20
3850;DHT22;1940;51.052;13.678;2023-06-04T04:55:47;19.30;51.80
3850;DHT22;1940;51.052;13.678;2023-06-04T04:58:13;18.90;52.30
3850;DHT22;1940;51.052;13.678;2023-06-04T05:00:39;19.60;51.50
3850;DHT22;1940;51.052;13.678;2023-06-04T05:03:05;20.10;50.40
3850;DHT22;1940;51.052;13.678;2023-06-04T05:05:32;19.80;50.40
3850;DHT22;1940;51.052;13.678;2023-06-04T05:07:59;20.60;49.60
3850;DHT22;1940;51.052;13.678;2023-06-04T05:10:24;21.30;48.60
3850;DHT22;1940;51.052;13.678;2023-06-04T05:12:53;21.90;47.50
3850;DHT22;1940;51.052;13.678;2023-06-04T05:15:18;22.30;47.00
3850;DHT22;1940;51.052;13.678;2023-06-04T05:17:45;22.80;46.00
3850;DHT22;1940;51.052;13.678;2023-06-04T05:20:14;22.70;45.70
3850;DHT22;1940;51.052;13.678;2023-06-04T05:22:41;22.70;46.00
3850;DHT22;1940;51.052;13.678;2023-06-04T05:25:08;22.30;46.50
3850;DHT22;1940;51.052;13.678;2023-06-04T05:27:34;22.80;45.90
3850;DHT22;1940;51.052;13.678;2023-06-04T05:30:00;21.30;47.20
3850;DHT22;1940;51.052;13.678;2023-06-04T05:32:26;21.10;47.70
3850;DHT22;1940;51.052;13.678;2023-06-04T05:34:54;20.10;49.30
3850;DHT22;1940;51.052;13.678;2023-06-04T05:37:22;21.10;48.20
3850;DHT22;1940;51.052;13.678;2023-06-04T05:39:49;21.50;47.00
3850;DHT22;1940;51.052;13.678;2023-06-04T05:42:15;22.10;46.60
3850;DHT22;1940;51.052;13.678;2023-06-04T05:44:41;22.40;46.00
3850;DHT22;1940;51.052;13.678;2023-06-04T05:47:06;22.90;45.50
3850;DHT22;1940;51.052;13.678;2023-06-04T05:49:34;23.30;45.00
3850;DHT22;1940;51.052;13.678;2023-06-04T05:52:00;23.50;44.50
3850;DHT22;1940;51.052;13.678;2023-06-04T05:54:28;23.40;44.80
3850;DHT22;1940;51.052;13.678;2023-06-04T05:56:54;22.70;45.90
3850;DHT22;1940;51.052;13.678;2023-06-04T05:59:19;22.70;45.90
3850;DHT22;1940;51.052;13.678;2023-06-04T06:01:45;22.50;45.90
3850;DHT22;1940;51.052;13.678;2023-06-04T06:04:13;22.90;45.30
3850;DHT22;1940;51.052;13.678;2023-06-04T06:06:38;23.50;45.00
3850;DHT22;1940;51.052;13.678;2023-06-04T06:09:04;23.50;45.40
3850;DHT22;1940;51.052;13.678;2023-06-04T06:11:30;23.30;44.70
3850;DHT22;1940;51.052;13.678;2023-06-04T06:13:56;22.60;45.80
3850;DHT22;1940;51.052;13.678;2023-06-04T06:16:22;22.90;45.40
3850;DHT22;1940;51.052;13.678;2023-06-04T06:18:47;22.80;45.70
3850;DHT22;1940;51.052;13.678;2023-06-04T06:21:13;22.50;46.20
3850;DHT22;1940;51.052;13.678;2023-06-04T06:23:38;23.10;45.70
3850;DHT22;1940;51.052;13.678;2023-06-04T06:26:04;22.90;46.30
3850;DHT22;1940;51.052;13.678;2023-06-04T06:28:33;23.20;45.60
3850;DHT22;1940;51.052;13.678;2023-06-04T06:30:59;23.40;45.50
3850;DHT22;1940;51.052;13.678;2023-06-04T06:33:24;24.10;44.70
3850;DHT22;1940;51.052;13.678;2023-06-04T06:35:50;24.70;43.40
3850;DHT22;1940;51.052;13.678;2023-06-04T06:38:16;24.70;43.60
3850;DHT22;1940;51.052;13.678;2023-06-04T06:40:41;23.50;45.20
3850;DHT22;1940;51.052;13.678;2023-06-04T06:43:07;22.70;46.40
3850;DHT22;1940;51.052;13.678;2023-06-04T06:45:32;22.70;46.50
3850;DHT22;1940;51.052;13.678;2023-06-04T06:47:58;22.60;46.60
3850;DHT22;1940;51.052;13.678;2023-06-04T06:50:23;22.90;45.70
3850;DHT22;1940;51.052;13.678;2023-06-04T06:52:49;23.60;45.10
3850;DHT22;1940;51.052;13.678;2023-06-04T06:55:15;22.80;46.00
3850;DHT22;1940;51.052;13.678;2023-06-04T06:57:41;22.60;45.40
3850;DHT22;1940;51.052;13.678;2023-06-04T07:00:07;23.10;45.20
3850;DHT22;1940;51.052;13.678;2023-06-04T07:02:33;23.60;44.00
3850;DHT22;1940;51.052;13.678;2023-06-04T07:04:58;23.30;43.30
3850;DHT22;1940;51.052;13.678;2023-06-04T07:07:24;22.80;44.00
3850;DHT22;1940;51.052;13.678;2023-06-04T07:09:49;23.20;44.10
3850;DHT22;1940;51.052;13.678;2023-06-04T07:12:15;23.80;42.50
3850;DHT22;1940;51.052;13.678;2023-06-04T07:14:41;23.90;42.50
3850;DHT22;1940;51.052;13.678;2023-06-04T07:17:07;24.20;41.80
3850;DHT22;1940;51.052;13.678;2023-06-04T07:19:33;24.80;41.20
3850;DHT22;1940;51.052;13.678;2023-06-04T07:21:58;24.90;41.10
3850;DHT22;1940;51.052;13.678;2023-06-04T07:24:24;24.70;41.70
3850;DHT22;1940;51.052;13.678;2023-06-04T07:26:50;25.00;42.10
3850;DHT22;1940;51.052;13.678;2023-06-04T07:29:15;25.30;40.70
3850;DHT22;1940;51.052;13.678;2023-06-04T07:31:41;25.90;39.70
3850;DHT22;1940;51.052;13.678;2023-06-04T07:34:07;26.30;39.00
3850;DHT22;1940;51.052;13.678;2023-06-04T07:36:33;26.10;39.20
3850;DHT22;1940;51.052;13.678;2023-06-04T07:38:59;25.50;40.40
3850;DHT22;1940;51.052;13.678;2023-06-04T07:41:25;26.20;39.20
3850;DHT22;1940;51.052;13.678;2023-06-04T07:43:51;26.40;39.20
3850;DHT22;1940;51.052;13.678;2023-06-04T07:46:17;26.30;40.70
3850;DHT22;1940;51.052;13.678;2023-06-04T07:48:44;26.80;39.70
3850;DHT22;1940;51.052;13.678;2023-06-04T07:51:13;27.30;39.40
3850;DHT22;1940;51.052;13.678;2023-06-04T07:53:39;27.30;38.70
3850;DHT22;1940;51.052;13.678;2023-06-04T07:56:05;27.20;39.60
3850;DHT22;1940;51.052;13.678;2023-06-04T07:58:31;26.40;40.50
3850;DHT22;1940;51.052;13.678;2023-06-04T08:00:56;26.20;40.40
3850;DHT22;1940;51.052;13.678;2023-06-04T08:03:22;26.20;41.00
3850;DHT22;1940;51.052;13.678;2023-06-04T08:05:48;25.80;40.60
3850;DHT22;1940;51.052;13.678;2023-06-04T08:08:14;25.20;42.00
3850;DHT22;1940;51.052;13.678;2023-06-04T08:10:40;25.30;41.90
3850;DHT22;1940;51.052;13.678;2023-06-04T08:13:06;25.10;42.60
3850;DHT22;1940;51.052;13.678;2023-06-04T08:15:31;24.90;41.50
3850;DHT22;1940;51.052;13.678;2023-06-04T08:17:57;25.90;41.30
3850;DHT22;1940;51.052;13.678;2023-06-04T08:20:23;26.40;40.40
3850;DHT22;1940;51.052;13.678;2023-06-04T08:22:48;27.10;39.70
3850;DHT22;1940;51.052;13.678;2023-06-04T08:25:14;26.70;40.70
3850;DHT22;1940;51.052;13.678;2023-06-04T08:27:41;26.60;40.60
3850;DHT22;1940;51.052;13.678;2023-06-04T08:30:07;26.80;40.40
3850;DHT22;1940;51.052;13.678;2023-06-04T08:32:34;27.80;39.30
3850;DHT22;1940;51.052;13.678;2023-06-04T08:34:59;28.40;39.40
3850;DHT22;1940;51.052;13.678;2023-06-04T08:37:25;28.70;37.90
3850;DHT22;1940;51.052;13.678;2023-06-04T08:39:51;29.30;36.90
3850;DHT22;1940;51.052;13.678;2023-06-04T08:42:38;28.70;37.50
3850;DHT22;1940;51.052;13.678;2023-06-04T08:45:10;28.70;37.10
3850;DHT22;1940;51.052;13.678;2023-06-04T08:47:48;29.30;36.70
3850;DHT22;1940;51.052;13.678;2023-06-04T08:50:18;29.70;36.40
3850;DHT22;1940;51.052;13.678;2023-06-04T08:52:44;30.80;35.40
3850;DHT22;1940;51.052;13.678;2023-06-04T08:55:11;30.90;35.40
3850;DHT22;1940;51.052;13.678;2023-06-04T08:57:39;31.10;35.40
3850;DHT22;1940;51.052;13.678;2023-06-04T09:00:06;31.30;35.80
3850;DHT22;1940;51.052;13.678;2023-06-04T09:02:38;30.70;35.40
3850;DHT22;1940;51.052;13.678;2023-06-04T09:05:04;30.00;36.10
3850;DHT22;1940;51.052;13.678;2023-06-04T09:07:35;30.30;36.40
3850;DHT22;1940;51.052;13.678;2023-06-04T09:10:01;30.90;34.30
3850;DHT22;1940;51.052;13.678;2023-06-04T09:12:27;31.60;33.80
3850;DHT22;1940;51.052;13.678;2023-06-04T09:14:53;31.30;33.80
3850;DHT22;1940;51.052;13.678;2023-06-04T09:17:23;30.40;34.60
3850;DHT22;1940;51.052;13.678;2023-06-04T09:19:49;31.00;34.30
3850;DHT22;1940;51.052;13.678;2023-06-04T09:22:15;31.30;33.90
3850;DHT22;1940;51.052;13.678;2023-06-04T09:24:46;31.50;34.50
3850;DHT22;1940;51.052;13.678;2023-06-04T09:27:16;31.80;33.80
3850;DHT22;1940;51.052;13.678;2023-06-04T09:29:52;30.90;34.10
3850;DHT22;1940;51.052;13.678;2023-06-04T09:32:22;30.70;34.90
3850;DHT22;1940;51.052;13.678;2023-06-04T09:34:48;31.30;32.90
3850;DHT22;1940;51.052;13.678;2023-06-04T09:37:15;31.20;32.60
3850;DHT22;1940;51.052;13.678;2023-06-04T09:39:43;30.20;33.40
3850;DHT22;1940;51.052;13.678;2023-06-04T09:42:09;30.00;34.30
3850;DHT22;1940;51.052;13.678;2023-06-04T09:44:43;30.80;33.10
3850;DHT22;1940;51.052;13.678;2023-06-04T09:47:10;30.90;33.00
3850;DHT22;1940;51.052;13.678;2023-06-04T09:49:43;30.90;33.30
3850;DHT22;1940;51.052;13.678;2023-06-04T09:52:09;30.60;33.60
3850;DHT22;1940;51.052;13.678;2023-06-04T09:54:36;30.20;33.50
3850;DHT22;1940;51.052;13.678;2023-06-04T09:57:03;29.90;33.70
3850;DHT22;1940;51.052;13.678;2023-06-04T09:59:33;31.10;32.40
3850;DHT22;1940;51.052;13.678;2023-06-04T10:02:00;32.00;31.50
3850;DHT22;1940;51.052;13.678;2023-06-04T10:04:27;32.00;31.50
3850;DHT22;1940;51.052;13.678;2023-06-04T10:06:53;31.40;31.50
3850;DHT22;1940;51.052;13.678;2023-06-04T10:09:19;31.60;32.50
3850;DHT22;1940;51.052;13.678;2023-06-04T10:11:53;31.90;32.50
3850;DHT22;1940;51.052;13.678;2023-06-04T10:14:23;31.70;32.40
3850;DHT22;1940;51.052;13.678;2023-06-04T10:16:51;31.90;32.40
3850;DHT22;1940;51.052;13.678;2023-06-04T10:19:18;31.50;32.00
3850;DHT22;1940;51.052;13.678;2023-06-04T10:21:44;31.30;32.30
3850;DHT22;1940;51.052;13.678;2023-06-04T10:24:13;30.60;32.50
3850;DHT22;1940;51.052;13.678;2023-06-04T10:26:39;31.00;32.40
3850;DHT22;1940;51.052;13.678;2023-06-04T10:29:06;30.80;32.80
3850;DHT22;1940;51.052;13.678;2023-06-04T10:31:32;30.90;32.30
3850;DHT22;1940;51.052;13.678;2023-06-04T10:33:58;31.30;31.90
3850;DHT22;1940;51.052;13.678;2023-06-04T10:36:24;31.00;32.00
3850;DHT22;1940;51.052;13.678;2023-06-04T10:38:52;31.20;32.50
3850;DHT22;1940;51.052;13.678;2023-06-04T10:41:20;31.30;31.60
3850;DHT22;1940;51.052;13.678;2023-06-04T10:43:49;31.50;31.50
3850;DHT22;1940;51.052;13.678;2023-06-04T10:46:17;31.80;31.00
3850;DHT22;1940;51.052;13.678;2023-06-04T10:48:46;32.20;31.40
3850;DHT22;1940;51.052;13.678;2023-06-04T10:51:12;32.30;30.70
3850;DHT22;1940;51.052;13.678;2023-06-04T10:53:38;32.50;30.50
3850;DHT22;1940;51.052;13.678;2023-06-04T10:56:03;31.70;31.60
3850;DHT22;1940;51.052;13.678;2023-06-04T10:58:34;31.60;31.40
3850;DHT22;1940;51.052;13.678;2023-06-04T11:01:00;32.40;31.50
3850;DHT22;1940;51.052;13.678;2023-06-04T11:03:35;32.60;30.60
3850;DHT22;1940;51.052;13.678;2023-06-04T11:06:01;32.40;31.20
3850;DHT22;1940;51.052;13.678;2023-06-04T11:08:29;31.00;32.20
3850;DHT22;1940;51.052;13.678;2023-06-04T11:10:54;30.80;33.80
3850;DHT22;1940;51.052;13.678;2023-06-04T11:13:26;31.80;31.50
3850;DHT22;1940;51.052;13.678;2023-06-04T11:15:51;32.40;31.00
3850;DHT22;1940;51.052;13.678;2023-06-04T11:18:19;31.30;32.70
3850;DHT22;1940;51.052;13.678;2023-06-04T11:20:46;29.70;33.50
3850;DHT22;1940;51.052;13.678;2023-06-04T11:23:13;28.80;33.80
3850;DHT22;1940;51.052;13.678;2023-06-04T11:25:38;28.50;35.20
3850;DHT22;1940;51.052;13.678;2023-06-04T11:28:04;27.20;36.10
3850;DHT22;1940;51.052;13.678;2023-06-04T11:30:30;26.30;37.10
3850;DHT22;1940;51.052;13.678;2023-06-04T11:33:03;25.60;38.30
3850;DHT22;1940;51.052;13.678;2023-06-04T11:35:29;25.00;39.50
3850;DHT22;1940;51.052;13.678;2023-06-04T11:37:57;24.70;39.60
3850;DHT22;1940;51.052;13.678;2023-06-04T11:40:23;24.50;39.70
3850;DHT22;1940;51.052;13.678;2023-06-04T11:42:50;24.40;38.90
3850;DHT22;1940;51.052;13.678;2023-06-04T11:45:17;24.40;40.00
3850;DHT22;1940;51.052;13.678;2023-06-04T11:47:51;24.20;39.50
3850;DHT22;1940;51.052;13.678;2023-06-04T11:50:17;24.00;39.80
3850;DHT22;1940;51.052;13.678;2023-06-04T11:52:42;24.10;40.00
3850;DHT22;1940;51.052;13.678;2023-06-04T11:55:09;24.40;38.50
3850;DHT22;1940;51.052;13.678;2023-06-04T11:57:36;24.50;40.20
3850;DHT22;1940;51.052;13.678;2023-06-04T12:00:02;24.50;39.60
3850;DHT22;1940;51.052;13.678;2023-06-04T12:02:28;24.30;41.40
3850;DHT22;1940;51.052;13.678;2023-06-04T12:04:53;24.20;41.00
3850;DHT22;1940;51.052;13.678;2023-06-04T12:07:22;24.40;39.60
3850;DHT22;1940;51.052;13.678;2023-06-04T12:09:49;24.50;39.80
3850;DHT22;1940;51.052;13.678;2023-06-04T12:12:21;24.30;39.30
3850;DHT22;1940;51.052;13.678;2023-06-04T12:14:56;24.00;40.00
3850;DHT22;1940;51.052;13.678;2023-06-04T12:17:22;23.90;40.50
3850;DHT22;1940;51.052;13.678;2023-06-04T12:19:49;23.60;41.30
3850;DHT22;1940;51.052;13.678;2023-06-04T12:22:15;23.70;40.60
3850;DHT22;1940;51.052;13.678;2023-06-04T12:24:51;23.60;42.00
3850;DHT22;1940;51.052;13.678;2023-06-04T12:27:20;23.80;40.70
3850;DHT22;1940;51.052;13.678;2023-06-04T12:30:00;23.80;40.60
3850;DHT22;1940;51.052;13.678;2023-06-04T12:32:27;23.80;41.20
3850;DHT22;1940;51.052;13.678;2023-06-04T12:34:53;24.00;41.00
3850;DHT22;1940;51.052;13.678;2023-06-04T12:37:18;23.80;40.30
3850;DHT22;1940;51.052;13.678;2023-06-04T12:39:44;23.80;40.70
3850;DHT22;1940;51.052;13.678;2023-06-04T12:42:09;23.80;40.30
3850;DHT22;1940;51.052;13.678;2023-06-04T12:44:39;23.60;40.40
3850;DHT22;1940;51.052;13.678;2023-06-04T12:47:06;23.70;41.80
3850;DHT22;1940;51.052;13.678;2023-06-04T12:49:31;23.80;41.10
3850;DHT22;1940;51.052;13.678;2023-06-04T12:51:57;23.70;41.30
3850;DHT22;1940;51.052;13.678;2023-06-04T12:54:23;23.70;40.40
3850;DHT22;1940;51.052;13.678;2023-06-04T12:56:49;23.70;41.80
3850;DHT22;1940;51.052;13.678;2023-06-04T12:59:14;24.00;40.70
3850;DHT22;1940;51.052;13.678;2023-06-04T13:01:40;23.90;40.20
3850;DHT22;1940;51.052;13.678;2023-06-04T13:04:06;24.10;40.40
3850;DHT22;1940;51.052;13.678;2023-06-04T13:06:31;24.20;40.60
3850;DHT22;1940;51.052;13.678;2023-06-04T13:08:57;24.40;40.20
3850;DHT22;1940;51.052;13.678;2023-06-04T13:11:22;24.40;39.70
3850;DHT22;1940;51.052;13.678;2023-06-04T13:13:48;24.20;39.80
3850;DHT22;1940;51.052;13.678;2023-06-04T13:16:14;24.00;40.30
3850;DHT22;1940;51.052;13.678;2023-06-04T13:18:39;23.90;40.00
3850;DHT22;1940;51.052;13.678;2023-06-04T13:21:05;23.90;40.50
3850;DHT22;1940;51.052;13.678;2023-06-04T13:23:31;24.00;40.20
3850;DHT22;1940;51.052;13.678;2023-06-04T13:25:56;23.90;39.90
3850;DHT22;1940;51.052;13.678;2023-06-04T13:28:22;23.80;40.80
3850;DHT22;1940;51.052;13.678;2023-06-04T13:30:48;23.80;39.80
3850;DHT22;1940;51.052;13.678;2023-06-04T13:33:14;23.80;40.00
3850;DHT22;1940;51.052;13.678;2023-06-04T13:35:39;23.90;40.00
3850;DHT22;1940;51.052;13.678;2023-06-04T13:38:05;23.90;39.70
3850;DHT22;1940;51.052;13.678;2023-06-04T13:40:33;24.00;40.50
3850;DHT22;1940;51.052;13.678;2023-06-04T13:42:59;24.10;40.40
3850;DHT22;1940;51.052;13.678;2023-06-04T13:45:25;24.20;39.60
3850;DHT22;1940;51.052;13.678;2023-06-04T13:47:50;24.00;40.10
3850;DHT22;1940;51.052;13.678;2023-06-04T13:50:16;23.80;40.00
3850;DHT22;1940;51.052;13.678;2023-06-04T13:52:42;23.60;40.00
3850;DHT22;1940;51.052;13.678;2023-06-04T13:55:07;23.60;40.60
3850;DHT22;1940;51.052;13.678;2023-06-04T13:57:33;23.40;40.40
3850;DHT22;1940;51.052;13.678;2023-06-04T13:59:59;23.40;40.70
3850;DHT22;1940;51.052;13.678;2023-06-04T14:02:24;23.50;40.70
3850;DHT22;1940;51.052;13.678;2023-06-04T14:04:53;23.50;41.10
3850;DHT22;1940;51.052;13.678;2023-06-04T14:07:18;23.50;40.20
3850;DHT22;1940;51.052;13.678;2023-06-04T14:09:44;23.50;40.70
3850;DHT22;1940;51.052;13.678;2023-06-04T14:12:09;23.60;39.70
3850;DHT22;1940;51.052;13.678;2023-06-04T14:14:35;23.60;39.40
3850;DHT22;1940;51.052;13.678;2023-06-04T14:17:04;23.60;40.20
3850;DHT22;1940;51.052;13.678;2023-06-04T14:19:30;23.60;40.60
3850;DHT22;1940;51.052;13.678;2023-06-04T14:21:55;23.70;40.00
3850;DHT22;1940;51.052;13.678;2023-06-04T14:24:21;23.70;40.00
3850;DHT22;1940;51.052;13.678;2023-06-04T14:26:47;23.70;40.00
3850;DHT22;1940;51.052;13.678;2023-06-04T14:29:13;23.80;39.90
3850;DHT22;1940;51.052;13.678;2023-06-04T14:31:39;23.80;39.30
3850;DHT22;1940;51.052;13.678;2023-06-04T14:34:04;23.80;39.60
3850;DHT22;1940;51.052;13.678;2023-06-04T14:36:30;23.80;39.40
3850;DHT22;1940;51.052;13.678;2023-06-04T14:38:56;23.80;38.30
3850;DHT22;1940;51.052;13.678;2023-06-04T14:41:22;23.80;38.40
3850;DHT22;1940;51.052;13.678;2023-06-04T14:43:47;23.90;38.00
3850;DHT22;1940;51.052;13.678;2023-06-04T14:46:13;24.00;38.20
3850;DHT22;1940;51.052;13.678;2023-06-04T14:48:38;24.00;38.60
3850;DHT22;1940;51.052;13.678;2023-06-04T14:51:04;23.90;37.80
3850;DHT22;1940;51.052;13.678;2023-06-04T14:53:29;23.90;37.60
3850;DHT22;1940;51.052;13.678;2023-06-04T14:55:55;23.70;38.80
3850;DHT22;1940;51.052;13.678;2023-06-04T14:58:20;23.70;38.10
3850;DHT22;1940;51.052;13.678;2023-06-04T15:00:46;23.70;36.90
3850;DHT22;1940;51.052;13.678;2023-06-04T15:03:13;23.80;36.90
3850;DHT22;1940;51.052;13.678;2023-06-04T15:05:38;23.90;37.30
3850;DHT22;1940;51.052;13.678;2023-06-04T15:08:04;23.80;38.30
3850;DHT22;1940;51.052;13.678;2023-06-04T15:10:30;23.90;36.50
3850;DHT22;1940;51.052;13.678;2023-06-04T15:12:56;23.80;36.40
3850;DHT22;1940;51.052;13.678;2023-06-04T15:15:22;23.70;36.70
3850;DHT22;1940;51.052;13.678;2023-06-04T15:17:48;23.70;37.20
3850;DHT22;1940;51.052;13.678;2023-06-04T15:20:14;23.80;36.90
3850;DHT22;1940;51.052;13.678;2023-06-04T15:22:41;23.90;36.60
3850;DHT22;1940;51.052;13.678;2023-06-04T15:25:06;23.90;36.50
3850;DHT22;1940;51.052;13.678;2023-06-04T15:27:32;23.90;35.90
3850;DHT22;1940;51.052;13.678;2023-06-04T15:29:58;24.00;36.00
3850;DHT22;1940;51.052;13.678;2023-06-04T15:32:23;24.10;36.00
3850;DHT22;1940;51.052;13.678;2023-06-04T15:34:49;24.10;36.40
3850;DHT22;1940;51.052;13.678;2023-06-04T15:37:15;24.10;36.90
3850;DHT22;1940;51.052;13.678;2023-06-04T15:39:41;24.00;37.20
3850;DHT22;1940;51.052;13.678;2023-06-04T15:42:06;23.80;37.20
3850;DHT22;1940;51.052;13.678;2023-06-04T15:44:33;23.70;37.50
3850;DHT22;1940;51.052;13.678;2023-06-04T15:46:58;23.70;37.40
3850;DHT22;1940;51.052;13.678;2023-06-04T15:49:24;23.80;37.50